Time;durP1;ratioP1;P1;durP2;ratioP2;P2;SDS_P1;SDS_P2;PMS_P1;PMS_P2;Temp;Humidity;BMP_temperature;BMP_pressure;BME280_temperature;BME280_humidity;BME280_pressure;Samples;Min_cycle;Max_cycle;Signal;HPM_P1;HPM_P2
2022/12/28 00:02:19;;;;;;;1.30;1.20;;;;;;;;;;4886883;29;20261;-80
2022/12/28 00:04:45;;;;;;;2.10;1.03;;;;;;;;;;4872443;29;20633;-86
2022/12/28 00:07:11;;;;;;;3.40;1.13;;;;;;;;;;4875890;29;20225;-85
2022/12/28 00:09:38;;;;;;;1.33;0.90;;;;;;;;;;4891507;29;20738;-85
2022/12/28 00:12:04;;;;;;;2.27;1.07;;;;;;;;;;4878027;29;20221;-84
2022/12/28 00:14:30;;;;;;;3.13;1.00;;;;;;;;;;4892909;29;20548;-85
2022/12/28 00:17:00;;;;;;;2.77;1.33;;;;;;;;;;4881270;29;20227;-84
2022/12/28 00:19:30;;;;;;;3.33;1.13;;;;;;;;;;4893371;29;20251;-85
2022/12/28 00:21:55;;;;;;;2.67;1.20;;;;;;;;;;4880482;29;20757;-85
2022/12/28 00:24:22;;;;;;;2.77;1.27;;;;;;;;;;4888570;29;20225;-83
2022/12/28 00:26:48;;;;;;;2.20;1.13;;;;;;;;;;4890432;29;20224;-83
2022/12/28 00:29:14;;;;;;;2.00;1.20;;;;;;;;;;4895391;29;20224;-84
2022/12/28 00:31:44;;;;;;;1.33;0.97;;;;;;;;;;4893717;29;20262;-81
2022/12/28 00:34:10;;;;;;;3.33;1.30;;;;;;;;;;4899540;29;20230;-84
2022/12/28 00:36:36;;;;;;;1.10;0.90;;;;;;;;;;4889224;29;20316;-83
2022/12/28 00:39:01;;;;;;;2.80;1.40;;;;;;;;;;4894091;29;20228;-85
2022/12/28 00:41:27;;;;;;;1.50;1.10;;;;;;;;;;4899432;29;20220;-84
2022/12/28 00:43:52;;;;;;;1.60;1.00;;;;;;;;;;4901953;29;20229;-81
2022/12/28 00:46:20;;;;;;;1.73;1.00;;;;;;;;;;4899197;29;20251;-85
2022/12/28 00:48:48;;;;;;;3.40;1.33;;;;;;;;;;4909660;29;20209;-85
2022/12/28 00:51:14;;;;;;;2.43;1.20;;;;;;;;;;4889484;29;20264;-84
2022/12/28 00:53:40;;;;;;;2.10;1.23;;;;;;;;;;4893046;29;20218;-85
2022/12/28 00:56:13;;;;;;;2.40;0.90;;;;;;;;;;4888164;29;20220;-85
2022/12/28 00:58:39;;;;;;;3.33;1.00;;;;;;;;;;4875994;29;20217;-84
2022/12/28 01:01:05;;;;;;;2.80;1.00;;;;;;;;;;4921482;29;20227;-85
2022/12/28 01:03:31;;;;;;;1.30;1.03;;;;;;;;;;4887522;29;20227;-82
2022/12/28 01:05:56;;;;;;;3.87;1.07;;;;;;;;;;4895078;29;20649;-83
2022/12/28 01:08:22;;;;;;;3.20;1.00;;;;;;;;;;4895657;29;20334;-84
2022/12/28 01:10:48;;;;;;;1.33;0.83;;;;;;;;;;4890116;29;20220;-84
2022/12/28 01:13:13;;;;;;;2.33;1.00;;;;;;;;;;4872056;29;20233;-82
2022/12/28 01:15:39;;;;;;;4.50;1.30;;;;;;;;;;4891019;29;20284;-83
2022/12/28 01:18:05;;;;;;;3.50;1.27;;;;;;;;;;4890313;29;20224;-83
2022/12/28 01:20:30;;;;;;;2.27;0.90;;;;;;;;;;4875125;29;20235;-83
2022/12/28 01:22:58;;;;;;;3.83;1.00;;;;;;;;;;4893656;29;20252;-85
2022/12/28 01:25:23;;;;;;;0.93;0.70;;;;;;;;;;4868460;29;20227;-83
2022/12/28 01:27:49;;;;;;;1.50;0.93;;;;;;;;;;4888526;29;20221;-86
2022/12/28 01:30:15;;;;;;;1.07;0.83;;;;;;;;;;4887322;29;20645;-85
2022/12/28 01:32:42;;;;;;;2.30;1.13;;;;;;;;;;4883196;29;20239;-83
2022/12/28 01:35:08;;;;;;;1.67;1.00;;;;;;;;;;4890688;29;20606;-82
2022/12/28 01:37:34;;;;;;;1.57;1.00;;;;;;;;;;4894977;29;20219;-83
2022/12/28 01:40:02;;;;;;;2.83;1.00;;;;;;;;;;4888735;29;20233;-84
2022/12/28 01:42:27;;;;;;;3.40;1.00;;;;;;;;;;4886675;29;20222;-83
2022/12/28 01:44:53;;;;;;;1.50;1.03;;;;;;;;;;4891530;29;20653;-83
2022/12/28 01:47:26;;;;;;;2.23;1.03;;;;;;;;;;4890404;29;20221;-85
2022/12/28 01:50:06;;;;;;;1.37;1.00;;;;;;;;;;4889428;29;20692;-82
2022/12/28 01:52:43;;;;;;;1.13;0.90;;;;;;;;;;4872518;29;20235;-83
2022/12/28 01:55:25;;;;;;;2.27;1.10;;;;;;;;;;4903365;29;20372;-82
2022/12/28 01:58:04;;;;;;;1.43;1.00;;;;;;;;;;4893620;29;20220;-83
2022/12/28 02:00:33;;;;;;;2.33;1.10;;;;;;;;;;4884245;29;20296;-84
2022/12/28 02:03:06;;;;;;;3.17;1.27;;;;;;;;;;4890139;29;20231;-85
2022/12/28 02:05:34;;;;;;;2.40;0.90;;;;;;;;;;4889515;29;20698;-83
2022/12/28 02:08:09;;;;;;;2.70;1.13;;;;;;;;;;4882317;29;20233;-82
2022/12/28 02:10:40;;;;;;;2.23;1.10;;;;;;;;;;4902177;29;20231;-84
2022/12/28 02:13:07;;;;;;;1.87;0.90;;;;;;;;;;4876384;29;20233;-82
2022/12/28 02:15:32;;;;;;;2.00;1.10;;;;;;;;;;4889691;29;20220;-83
2022/12/28 02:18:00;;;;;;;3.23;0.93;;;;;;;;;;4893307;29;20247;-82
2022/12/28 02:20:30;;;;;;;2.37;1.13;;;;;;;;;;4876729;29;20266;-83
2022/12/28 02:23:06;;;;;;;2.47;1.00;;;;;;;;;;4887275;29;20225;-84
2022/12/28 02:26:03;;;;;;;1.60;1.10;;;;;;;;;;4886718;29;20224;-83
2022/12/28 02:29:09;;;;;;;1.73;1.30;;;;;;;;;;4904517;29;20237;-81
2022/12/28 02:31:48;;;;;;;2.30;1.10;;;;;;;;;;4904073;29;20848;-84
2022/12/28 02:34:21;;;;;;;2.73;1.23;;;;;;;;;;4906383;29;20235;-82
2022/12/28 02:37:09;;;;;;;1.87;1.00;;;;;;;;;;4905234;29;20243;-84
2022/12/28 02:39:40;;;;;;;1.77;1.07;;;;;;;;;;4900297;29;20397;-84
2022/12/28 02:42:08;;;;;;;2.80;1.20;;;;;;;;;;4870458;29;20265;-82
2022/12/28 02:50:10;;;;;;;2.33;1.20;;;;;;;;;;4871104;29;20248;-80
2022/12/28 02:53:02;;;;;;;1.60;1.00;;;;;;;;;;4865661;29;20268;-84
2022/12/28 02:59:05;;;;;;;2.33;1.27;;;;;;;;;;4890833;29;20621;-86
2022/12/28 03:02:03;;;;;;;2.80;1.40;;;;;;;;;;4880886;29;20236;-81
2022/12/28 03:04:52;;;;;;;3.17;1.23;;;;;;;;;;4887429;29;20228;-85
2022/12/28 03:10:14;;;;;;;3.10;1.10;;;;;;;;;;4877187;29;20225;-82
2022/12/28 03:12:56;;;;;;;1.90;1.13;;;;;;;;;;4883527;29;20676;-84
2022/12/28 03:15:30;;;;;;;2.73;1.00;;;;;;;;;;4865740;29;20296;-79
2022/12/28 03:32:01;;;;;;;7.47;1.60;;;;;;;;;;4880560;29;20240;-85
2022/12/28 03:34:28;;;;;;;2.90;1.40;;;;;;;;;;4865664;29;20217;-80
2022/12/28 03:37:04;;;;;;;1.87;1.10;;;;;;;;;;4881785;29;20271;-83
2022/12/28 03:40:01;;;;;;;8.93;1.30;;;;;;;;;;4868257;29;20670;-81
2022/12/28 03:45:55;;;;;;;3.27;1.27;;;;;;;;;;4877904;29;20260;-80
2022/12/28 03:48:21;;;;;;;3.50;1.20;;;;;;;;;;4888435;29;20222;-82
2022/12/28 03:50:48;;;;;;;2.07;1.33;;;;;;;;;;4876970;29;20272;-83
2022/12/28 03:53:21;;;;;;;3.20;1.13;;;;;;;;;;4899875;29;20231;-82
2022/12/28 03:55:51;;;;;;;1.97;1.13;;;;;;;;;;4897179;29;20257;-81
2022/12/28 03:58:19;;;;;;;2.60;1.20;;;;;;;;;;4900667;29;20228;-82
2022/12/28 04:00:47;;;;;;;2.67;1.57;;;;;;;;;;4883156;29;20225;-82
2022/12/28 04:03:12;;;;;;;2.77;1.30;;;;;;;;;;4916518;29;20212;-81
2022/12/28 04:05:40;;;;;;;3.20;1.30;;;;;;;;;;4885713;29;20248;-83
2022/12/28 04:08:06;;;;;;;2.70;1.30;;;;;;;;;;4887391;29;20220;-83
2022/12/28 04:10:35;;;;;;;1.40;1.00;;;;;;;;;;4896682;29;20535;-82
2022/12/28 04:13:00;;;;;;;3.90;1.40;;;;;;;;;;4885068;29;20224;-81
2022/12/28 04:15:37;;;;;;;2.20;1.20;;;;;;;;;;4892093;29;20591;-81
2022/12/28 04:18:03;;;;;;;2.17;1.27;;;;;;;;;;4887879;29;20224;-82
2022/12/28 04:20:28;;;;;;;1.60;1.50;;;;;;;;;;4867752;29;20312;-82
2022/12/28 04:22:56;;;;;;;4.23;1.43;;;;;;;;;;4878947;29;20266;-81
2022/12/28 04:25:22;;;;;;;3.00;1.30;;;;;;;;;;4872499;29;20225;-80
2022/12/28 04:27:48;;;;;;;1.73;1.50;;;;;;;;;;4874968;29;20316;-82
2022/12/28 04:30:45;;;;;;;2.27;1.40;;;;;;;;;;4902178;29;20217;-81
2022/12/28 04:33:13;;;;;;;2.03;1.37;;;;;;;;;;4894004;29;20224;-82
2022/12/28 04:35:42;;;;;;;1.80;1.40;;;;;;;;;;4868508;29;20221;-80
2022/12/28 04:38:07;;;;;;;4.20;1.50;;;;;;;;;;4896576;29;20239;-81
2022/12/28 04:40:33;;;;;;;1.87;1.30;;;;;;;;;;4866801;29;20231;-79
2022/12/28 04:42:58;;;;;;;2.30;1.27;;;;;;;;;;4881467;29;20240;-80
2022/12/28 04:45:26;;;;;;;1.60;1.40;;;;;;;;;;4903237;29;20224;-81
2022/12/28 04:47:55;;;;;;;2.00;1.50;;;;;;;;;;4893025;29;20751;-81
2022/12/28 04:50:21;;;;;;;1.93;1.30;;;;;;;;;;4890406;29;20256;-83
2022/12/28 04:52:49;;;;;;;3.57;1.50;;;;;;;;;;4893474;29;20231;-82
2022/12/28 04:55:14;;;;;;;5.20;2.07;;;;;;;;;;4890155;29;20237;-81
2022/12/28 04:57:42;;;;;;;2.27;1.57;;;;;;;;;;4893230;29;20229;-84
2022/12/28 05:00:08;;;;;;;9.10;2.13;;;;;;;;;;4888233;29;20249;-81
2022/12/28 05:02:39;;;;;;;2.30;1.70;;;;;;;;;;4891403;29;20228;-81
2022/12/28 05:05:04;;;;;;;2.73;1.67;;;;;;;;;;4899773;29;20225;-82
2022/12/28 05:07:32;;;;;;;3.80;1.73;;;;;;;;;;4892486;29;20224;-81
2022/12/28 05:09:58;;;;;;;2.90;2.00;;;;;;;;;;4896079;29;20220;-81
2022/12/28 05:12:24;;;;;;;2.70;1.57;;;;;;;;;;4893701;29;20229;-81
2022/12/28 05:14:50;;;;;;;2.03;1.83;;;;;;;;;;4890200;29;20238;-81
2022/12/28 05:17:15;;;;;;;1.93;1.80;;;;;;;;;;4879042;29;20250;-81
2022/12/28 05:19:43;;;;;;;4.80;2.20;;;;;;;;;;4886845;29;20229;-85
2022/12/28 05:22:10;;;;;;;4.60;1.90;;;;;;;;;;4876012;29;20331;-82
2022/12/28 05:24:39;;;;;;;3.87;2.30;;;;;;;;;;4893290;29;20252;-81
2022/12/28 05:27:05;;;;;;;1.90;1.70;;;;;;;;;;4903675;29;20236;-83
2022/12/28 05:29:30;;;;;;;3.37;2.20;;;;;;;;;;4892190;29;20232;-82
2022/12/28 05:31:56;;;;;;;3.63;2.13;;;;;;;;;;4885105;29;20315;-81
2022/12/28 05:34:23;;;;;;;3.13;1.87;;;;;;;;;;4891971;29;20225;-82
2022/12/28 05:36:49;;;;;;;3.97;2.07;;;;;;;;;;4894226;29;20559;-83
2022/12/28 05:39:14;;;;;;;2.33;2.13;;;;;;;;;;4892008;29;20243;-82
2022/12/28 05:41:40;;;;;;;3.00;1.83;;;;;;;;;;4905484;29;20252;-83
2022/12/28 05:44:06;;;;;;;3.83;2.17;;;;;;;;;;4893357;29;20280;-82
2022/12/28 05:46:34;;;;;;;3.33;2.43;;;;;;;;;;4890974;29;20526;-82
2022/12/28 05:49:00;;;;;;;4.50;2.17;;;;;;;;;;4889977;29;20598;-82
2022/12/28 05:51:27;;;;;;;2.23;2.00;;;;;;;;;;4871192;29;20229;-83
2022/12/28 05:53:53;;;;;;;2.43;2.07;;;;;;;;;;4893788;29;20608;-82
2022/12/28 05:56:20;;;;;;;3.57;2.50;;;;;;;;;;4878565;29;20224;-81
2022/12/28 05:58:50;;;;;;;2.90;2.37;;;;;;;;;;4891448;29;20220;-80
2022/12/28 06:01:17;;;;;;;2.40;2.20;;;;;;;;;;4889119;29;20237;-82
2022/12/28 06:03:44;;;;;;;3.87;2.63;;;;;;;;;;4877183;29;20228;-82
2022/12/28 06:06:15;;;;;;;3.13;2.30;;;;;;;;;;4896951;29;20271;-80
2022/12/28 06:08:43;;;;;;;3.87;2.43;;;;;;;;;;4894737;29;20236;-80
2022/12/28 06:11:10;;;;;;;2.90;2.47;;;;;;;;;;4875640;29;20264;-83
2022/12/28 06:13:36;;;;;;;7.43;6.67;;;;;;;;;;4890862;29;20235;-83
2022/12/28 06:16:11;;;;;;;2.53;2.33;;;;;;;;;;4894866;29;20223;-83
2022/12/28 06:18:36;;;;;;;2.80;2.50;;;;;;;;;;4888897;29;20298;-81
2022/12/28 06:21:29;;;;;;;6.53;2.57;;;;;;;;;;4900574;29;20731;-82
2022/12/28 06:23:56;;;;;;;2.77;2.50;;;;;;;;;;4894979;29;20244;-81
2022/12/28 06:26:22;;;;;;;2.37;2.10;;;;;;;;;;4878654;29;20268;-81
2022/12/28 06:28:47;;;;;;;2.90;2.23;;;;;;;;;;4890196;29;20240;-83
2022/12/28 06:31:23;;;;;;;4.50;2.47;;;;;;;;;;4893635;29;20241;-82
2022/12/28 06:33:52;;;;;;;2.90;2.10;;;;;;;;;;4878558;29;20300;-81
2022/12/28 06:36:21;;;;;;;2.43;2.23;;;;;;;;;;4874788;29;20244;-84
2022/12/28 06:38:49;;;;;;;2.53;2.33;;;;;;;;;;4892580;29;20239;-83
2022/12/28 06:41:18;;;;;;;3.07;2.60;;;;;;;;;;4892372;29;20253;-82
2022/12/28 06:43:44;;;;;;;2.57;2.37;;;;;;;;;;4878825;29;20542;-84
2022/12/28 06:46:10;;;;;;;2.77;2.37;;;;;;;;;;4879808;29;20228;-81
2022/12/28 06:48:38;;;;;;;3.67;2.80;;;;;;;;;;4882769;29;20231;-81
2022/12/28 06:51:05;;;;;;;2.67;2.10;;;;;;;;;;4894567;29;20228;-80
2022/12/28 06:53:35;;;;;;;2.83;2.60;;;;;;;;;;4904614;29;20284;-81
2022/12/28 06:56:02;;;;;;;3.57;2.17;;;;;;;;;;4878410;29;20240;-81
2022/12/28 06:58:28;;;;;;;2.00;1.90;;;;;;;;;;4879696;29;20227;-82
2022/12/28 07:00:53;;;;;;;2.47;2.27;;;;;;;;;;4896360;29;20319;-83
2022/12/28 07:03:22;;;;;;;3.03;2.30;;;;;;;;;;4899108;29;20213;-84
2022/12/28 07:05:50;;;;;;;2.07;1.93;;;;;;;;;;4893967;29;20246;-81
2022/12/28 07:08:17;;;;;;;2.50;2.30;;;;;;;;;;4894951;29;20228;-83
2022/12/28 07:10:43;;;;;;;2.03;1.93;;;;;;;;;;4896199;29;20229;-82
2022/12/28 07:13:08;;;;;;;4.20;2.43;;;;;;;;;;4889644;29;20251;-84
2022/12/28 07:15:34;;;;;;;2.57;2.30;;;;;;;;;;4899927;29;20316;-82
2022/12/28 07:18:00;;;;;;;2.20;2.10;;;;;;;;;;4890734;29;20806;-83
2022/12/28 07:20:25;;;;;;;2.73;2.53;;;;;;;;;;4875587;29;20248;-81
2022/12/28 07:22:52;;;;;;;3.03;2.27;;;;;;;;;;4909940;29;20228;-83
2022/12/28 07:25:18;;;;;;;2.57;2.37;;;;;;;;;;4897452;29;20224;-83
2022/12/28 07:27:43;;;;;;;2.30;2.10;;;;;;;;;;4892544;29;20225;-82
2022/12/28 07:30:09;;;;;;;2.30;2.10;;;;;;;;;;4902910;29;20229;-83
2022/12/28 07:32:36;;;;;;;2.27;2.10;;;;;;;;;;4891047;29;20229;-84
2022/12/28 07:35:04;;;;;;;2.20;2.00;;;;;;;;;;4901319;29;20220;-81
2022/12/28 07:37:32;;;;;;;2.00;1.90;;;;;;;;;;4891843;29;20239;-81
2022/12/28 07:39:59;;;;;;;2.17;1.97;;;;;;;;;;4897381;29;20236;-80
2022/12/28 07:42:27;;;;;;;2.27;2.13;;;;;;;;;;4892933;29;20284;-82
2022/12/28 07:44:53;;;;;;;2.43;2.23;;;;;;;;;;4904687;29;20224;-80
2022/12/28 07:47:23;;;;;;;2.50;2.30;;;;;;;;;;4893906;29;20229;-81
2022/12/28 07:49:48;;;;;;;2.17;2.07;;;;;;;;;;4893006;29;20248;-82
2022/12/28 07:52:16;;;;;;;6.00;2.70;;;;;;;;;;4910021;29;20720;-80
2022/12/28 07:54:43;;;;;;;3.67;3.37;;;;;;;;;;4894806;29;20220;-83
2022/12/28 07:57:09;;;;;;;2.70;2.50;;;;;;;;;;4898650;29;20229;-80
2022/12/28 07:59:37;;;;;;;2.87;2.53;;;;;;;;;;4886110;29;20292;-83
2022/12/28 08:02:05;;;;;;;2.73;2.50;;;;;;;;;;4892127;29;20796;-82
2022/12/28 08:04:30;;;;;;;6.33;2.40;;;;;;;;;;4891062;29;20225;-81
2022/12/28 08:06:58;;;;;;;2.70;2.40;;;;;;;;;;4905799;29;20296;-83
2022/12/28 08:09:23;;;;;;;3.23;2.73;;;;;;;;;;4888779;29;20225;-81
2022/12/28 08:11:51;;;;;;;2.53;2.33;;;;;;;;;;4875468;29;20225;-81
2022/12/28 08:14:17;;;;;;;2.97;2.43;;;;;;;;;;4888268;29;20240;-80
2022/12/28 08:16:42;;;;;;;2.43;2.30;;;;;;;;;;4871245;29;20221;-83
2022/12/28 08:19:08;;;;;;;3.00;2.80;;;;;;;;;;4889683;29;20799;-81
2022/12/28 08:21:41;;;;;;;2.70;2.50;;;;;;;;;;4865013;29;20269;-82
2022/12/28 08:24:09;;;;;;;3.90;3.50;;;;;;;;;;4883513;29;20731;-84
2022/12/28 08:26:38;;;;;;;4.10;3.70;;;;;;;;;;4878457;29;20716;-82
2022/12/28 08:29:08;;;;;;;2.80;2.60;;;;;;;;;;4885341;29;20248;-84
2022/12/28 08:31:40;;;;;;;3.00;2.80;;;;;;;;;;4891750;29;20236;-83
2022/12/28 08:34:07;;;;;;;3.57;3.27;;;;;;;;;;4888341;29;20211;-84
2022/12/28 08:36:32;;;;;;;3.73;3.43;;;;;;;;;;4893392;29;20229;-84
2022/12/28 08:39:01;;;;;;;3.60;3.30;;;;;;;;;;4897690;29;20243;-82
2022/12/28 08:41:30;;;;;;;4.27;3.93;;;;;;;;;;4885509;29;20233;-83
2022/12/28 08:43:55;;;;;;;3.10;2.90;;;;;;;;;;4881113;29;20226;-82
2022/12/28 08:46:25;;;;;;;3.60;3.40;;;;;;;;;;4883309;29;20606;-84
2022/12/28 08:48:55;;;;;;;4.20;3.90;;;;;;;;;;4905075;29;20224;-84
2022/12/28 08:51:21;;;;;;;3.73;3.47;;;;;;;;;;4885274;29;20637;-82
2022/12/28 08:53:47;;;;;;;3.37;3.07;;;;;;;;;;4903065;29;20311;-86
2022/12/28 08:56:13;;;;;;;3.93;3.63;;;;;;;;;;4888213;29;20312;-83
2022/12/28 08:58:42;;;;;;;3.20;3.00;;;;;;;;;;4908712;29;20600;-85
2022/12/28 09:01:14;;;;;;;3.47;3.27;;;;;;;;;;4890029;29;21075;-84
2022/12/28 09:03:43;;;;;;;3.63;3.43;;;;;;;;;;4879406;29;20239;-83
2022/12/28 09:06:11;;;;;;;3.40;3.20;;;;;;;;;;4878942;29;20217;-85
2022/12/28 09:08:38;;;;;;;3.77;3.47;;;;;;;;;;4906819;29;20229;-84
2022/12/28 09:11:10;;;;;;;3.83;3.47;;;;;;;;;;4885367;29;20225;-81
2022/12/28 09:13:36;;;;;;;3.40;3.10;;;;;;;;;;4885492;29;20634;-82
2022/12/28 09:16:05;;;;;;;3.93;3.63;;;;;;;;;;4886625;29;20216;-84
2022/12/28 09:18:33;;;;;;;3.57;3.37;;;;;;;;;;4882941;29;20221;-82
2022/12/28 09:21:14;;;;;;;3.37;3.13;;;;;;;;;;4880041;29;20238;-84
2022/12/28 09:23:46;;;;;;;3.50;3.30;;;;;;;;;;4883301;29;20225;-83
2022/12/28 09:26:17;;;;;;;4.07;3.77;;;;;;;;;;4869565;29;20241;-81
2022/12/28 09:28:46;;;;;;;3.57;3.37;;;;;;;;;;4902123;29;20312;-83
2022/12/28 09:31:12;;;;;;;3.67;3.47;;;;;;;;;;4904627;29;20339;-82
2022/12/28 09:36:21;;;;;;;3.30;3.10;;;;;;;;;;4895412;29;20838;-80
2022/12/28 09:38:47;;;;;;;3.30;3.10;;;;;;;;;;4885017;29;20229;-81
2022/12/28 09:41:25;;;;;;;3.67;3.37;;;;;;;;;;4890197;29;20229;-82
2022/12/28 09:44:15;;;;;;;3.53;3.23;;;;;;;;;;4909473;29;20243;-81
2022/12/28 09:47:02;;;;;;;3.60;3.40;;;;;;;;;;4902873;29;20221;-82
2022/12/28 09:49:35;;;;;;;3.20;3.00;;;;;;;;;;4908687;29;20233;-80
2022/12/28 09:52:09;;;;;;;3.50;3.23;;;;;;;;;;4890763;29;20270;-82
2022/12/28 09:54:35;;;;;;;2.87;2.67;;;;;;;;;;4884309;29;20250;-84
2022/12/28 09:57:00;;;;;;;3.50;3.20;;;;;;;;;;4883824;29;20228;-83
2022/12/28 09:59:26;;;;;;;2.90;2.70;;;;;;;;;;4889658;29;20620;-79
2022/12/28 10:01:57;;;;;;;2.87;2.70;;;;;;;;;;4899681;29;20244;-86
2022/12/28 10:04:26;;;;;;;2.80;2.60;;;;;;;;;;4882507;29;20228;-83
2022/12/28 10:06:55;;;;;;;4.00;3.00;;;;;;;;;;4911421;29;21114;-81
2022/12/28 10:09:32;;;;;;;2.80;2.70;;;;;;;;;;4893303;29;20249;-82
2022/12/28 10:11:57;;;;;;;2.57;2.40;;;;;;;;;;4894283;29;20220;-82
2022/12/28 10:14:29;;;;;;;2.20;2.10;;;;;;;;;;4891684;29;20961;-83
2022/12/28 10:16:55;;;;;;;2.70;2.50;;;;;;;;;;4894758;29;20232;-81
2022/12/28 10:19:28;;;;;;;3.07;2.70;;;;;;;;;;4894595;29;20629;-85
2022/12/28 10:22:23;;;;;;;2.20;2.10;;;;;;;;;;4884488;29;20252;-79
2022/12/28 10:24:48;;;;;;;2.43;2.23;;;;;;;;;;4875191;29;20240;-84
2022/12/28 10:27:26;;;;;;;2.30;2.20;;;;;;;;;;4886220;29;20220;-84
2022/12/28 10:29:53;;;;;;;1.73;1.67;;;;;;;;;;4882884;29;20221;-81
2022/12/28 10:32:19;;;;;;;2.30;2.10;;;;;;;;;;4873030;29;20232;-82
2022/12/28 10:35:00;;;;;;;1.90;1.80;;;;;;;;;;4885535;29;20233;-78
2022/12/28 10:37:28;;;;;;;2.03;1.93;;;;;;;;;;4882771;29;20353;-85
2022/12/28 10:40:00;;;;;;;2.00;1.90;;;;;;;;;;4892574;29;20241;-83
2022/12/28 10:42:33;;;;;;;1.53;1.43;;;;;;;;;;4891295;29;20288;-84
2022/12/28 10:45:20;;;;;;;1.67;1.57;;;;;;;;;;4884572;29;20300;-84
2022/12/28 10:47:49;;;;;;;1.53;1.43;;;;;;;;;;4869982;29;20249;-79
2022/12/28 10:50:43;;;;;;;1.67;1.57;;;;;;;;;;4884143;29;20217;-83
2022/12/28 10:53:33;;;;;;;1.60;1.50;;;;;;;;;;4885057;29;20240;-83
2022/12/28 10:56:11;;;;;;;1.63;1.53;;;;;;;;;;4907436;29;20246;-82
2022/12/28 10:58:40;;;;;;;2.27;2.17;;;;;;;;;;4884132;29;20311;-82
2022/12/28 11:01:12;;;;;;;1.93;1.53;;;;;;;;;;4889537;29;20659;-82
2022/12/28 11:03:39;;;;;;;1.47;1.37;;;;;;;;;;4901501;29;20238;-82
2022/12/28 11:06:12;;;;;;;1.30;1.30;;;;;;;;;;4886226;29;20241;-83
2022/12/28 11:08:38;;;;;;;2.90;2.00;;;;;;;;;;4900693;29;20239;-83
2022/12/28 11:11:09;;;;;;;1.70;1.60;;;;;;;;;;4887246;29;20239;-82
2022/12/28 11:13:34;;;;;;;1.80;1.70;;;;;;;;;;4890863;29;20275;-83
2022/12/28 11:16:00;;;;;;;1.70;1.60;;;;;;;;;;4888722;29;20221;-79
2022/12/28 11:18:25;;;;;;;1.70;1.60;;;;;;;;;;4886417;29;20219;-82
2022/12/28 11:20:52;;;;;;;1.83;1.53;;;;;;;;;;4885772;29;20784;-83
2022/12/28 11:23:20;;;;;;;1.50;1.40;;;;;;;;;;4887893;29;20223;-82
2022/12/28 11:25:48;;;;;;;1.33;1.33;;;;;;;;;;4888160;29;20644;-82
2022/12/28 11:28:20;;;;;;;2.40;2.20;;;;;;;;;;4891406;29;20217;-82
2022/12/28 11:30:48;;;;;;;2.00;1.90;;;;;;;;;;4886330;29;20310;-83
2022/12/28 11:33:45;;;;;;;1.67;1.53;;;;;;;;;;4883600;29;20309;-80
2022/12/28 11:36:18;;;;;;;1.70;1.60;;;;;;;;;;4900880;29;20249;-82
2022/12/28 11:38:50;;;;;;;1.70;1.60;;;;;;;;;;4885221;29;20233;-84
2022/12/28 11:41:26;;;;;;;1.90;1.80;;;;;;;;;;4883698;29;20239;-86
2022/12/28 11:44:04;;;;;;;1.60;1.50;;;;;;;;;;4903899;29;20228;-79
2022/12/28 11:46:29;;;;;;;1.73;1.63;;;;;;;;;;4896460;29;20229;-81
2022/12/28 11:49:23;;;;;;;1.70;1.60;;;;;;;;;;4903497;29;20239;-82
2022/12/28 11:52:19;;;;;;;1.50;1.40;;;;;;;;;;4887921;29;20306;-81
2022/12/28 11:55:01;;;;;;;2.00;1.90;;;;;;;;;;4901745;29;20263;-83
2022/12/28 11:57:36;;;;;;;2.53;1.63;;;;;;;;;;4891375;29;20766;-82
2022/12/28 12:00:16;;;;;;;1.60;1.50;;;;;;;;;;4898449;29;20304;-82
2022/12/28 12:02:52;;;;;;;2.00;1.80;;;;;;;;;;4904040;29;20320;-85
2022/12/28 12:05:38;;;;;;;1.70;1.60;;;;;;;;;;4893395;29;20216;-85
2022/12/28 12:08:14;;;;;;;1.77;1.67;;;;;;;;;;4910525;29;20805;-81
2022/12/28 12:10:40;;;;;;;2.00;1.90;;;;;;;;;;4906868;29;20259;-82
2022/12/28 12:13:24;;;;;;;1.43;1.37;;;;;;;;;;4892594;29;20228;-84
2022/12/28 12:16:00;;;;;;;1.40;1.40;;;;;;;;;;4909101;29;20232;-81
2022/12/28 12:18:27;;;;;;;1.90;1.80;;;;;;;;;;4891047;29;20228;-83
2022/12/28 12:21:05;;;;;;;1.60;1.50;;;;;;;;;;4879891;29;20260;-83
2022/12/28 12:23:47;;;;;;;1.90;1.80;;;;;;;;;;4892495;29;20279;-81
2022/12/28 12:26:16;;;;;;;1.90;1.80;;;;;;;;;;4891615;29;20337;-81
2022/12/28 12:28:45;;;;;;;1.70;1.60;;;;;;;;;;4909932;29;20244;-83
2022/12/28 12:31:32;;;;;;;2.33;2.20;;;;;;;;;;4880235;29;20232;-83
2022/12/28 12:34:07;;;;;;;2.07;1.87;;;;;;;;;;4905399;29;20233;-84
2022/12/28 12:36:48;;;;;;;2.00;1.90;;;;;;;;;;4887301;29;20216;-81
2022/12/28 12:39:39;;;;;;;1.70;1.60;;;;;;;;;;4877992;29;20236;-80
2022/12/28 12:42:13;;;;;;;1.93;1.80;;;;;;;;;;4894483;29;20279;-82
2022/12/28 12:44:53;;;;;;;1.57;1.33;;;;;;;;;;4863902;29;20232;-79
2022/12/28 12:47:47;;;;;;;1.90;1.80;;;;;;;;;;4888189;29;20272;-82
2022/12/28 12:50:45;;;;;;;1.63;1.53;;;;;;;;;;4897624;29;20293;-81
2022/12/28 12:53:16;;;;;;;1.70;1.60;;;;;;;;;;4892107;29;20618;-83
2022/12/28 12:56:05;;;;;;;1.67;1.57;;;;;;;;;;4909695;29;20260;-81
2022/12/28 12:58:34;;;;;;;1.80;1.70;;;;;;;;;;4904461;29;20773;-81
2022/12/28 13:01:15;;;;;;;2.10;2.00;;;;;;;;;;4902499;29;20240;-83
2022/12/28 13:03:48;;;;;;;1.60;1.50;;;;;;;;;;4901984;29;20221;-81
2022/12/28 13:06:15;;;;;;;1.70;1.60;;;;;;;;;;4885645;29;20216;-83
2022/12/28 13:08:56;;;;;;;1.80;1.70;;;;;;;;;;4873779;29;20233;-83
2022/12/28 13:11:24;;;;;;;1.80;1.70;;;;;;;;;;4899890;29;20303;-83
2022/12/28 13:13:51;;;;;;;1.77;1.67;;;;;;;;;;4888304;29;20220;-81
2022/12/28 13:16:21;;;;;;;2.17;1.97;;;;;;;;;;4890082;29;20220;-81
2022/12/28 13:18:55;;;;;;;2.87;2.67;;;;;;;;;;4875620;29;20221;-81
2022/12/28 13:21:21;;;;;;;1.90;1.80;;;;;;;;;;4910627;29;20711;-79
2022/12/28 13:23:47;;;;;;;1.80;1.70;;;;;;;;;;4877878;29;20227;-80
2022/12/28 13:26:13;;;;;;;2.00;1.90;;;;;;;;;;4892035;29;20224;-82
2022/12/28 13:28:49;;;;;;;2.10;2.00;;;;;;;;;;4873517;29;20236;-82
2022/12/28 13:31:26;;;;;;;2.33;2.23;;;;;;;;;;4873273;29;20719;-81
2022/12/28 13:33:56;;;;;;;2.00;1.90;;;;;;;;;;4873464;29;20244;-83
2022/12/28 13:36:22;;;;;;;2.20;2.10;;;;;;;;;;4884938;29;20220;-82
2022/12/28 13:39:02;;;;;;;1.80;1.70;;;;;;;;;;4887297;29;20257;-80
2022/12/28 13:41:28;;;;;;;1.90;1.80;;;;;;;;;;4881153;29;20630;-79
2022/12/28 13:44:12;;;;;;;1.70;1.60;;;;;;;;;;4905884;29;20224;-82
2022/12/28 13:46:41;;;;;;;3.67;3.47;;;;;;;;;;4891205;29;20224;-82
2022/12/28 13:49:09;;;;;;;2.93;2.73;;;;;;;;;;4886203;29;20225;-83
2022/12/28 13:51:37;;;;;;;2.93;2.73;;;;;;;;;;4887607;29;20249;-83
2022/12/28 13:54:03;;;;;;;2.40;2.30;;;;;;;;;;4875153;29;20712;-81
2022/12/28 13:56:28;;;;;;;1.73;1.63;;;;;;;;;;4891168;29;20235;-86
2022/12/28 13:59:02;;;;;;;3.97;2.10;;;;;;;;;;4876994;29;20229;-87
2022/12/28 14:01:30;;;;;;;2.10;2.00;;;;;;;;;;4872472;29;20267;-85
2022/12/28 14:04:00;;;;;;;2.67;1.83;;;;;;;;;;4881378;29;20820;-86
2022/12/28 14:06:29;;;;;;;1.60;1.60;;;;;;;;;;4884945;29;20273;-88
2022/12/28 14:08:59;;;;;;;1.93;1.83;;;;;;;;;;4889743;29;20220;-89
2022/12/28 14:11:25;;;;;;;2.13;2.03;;;;;;;;;;4882294;29;20253;-88
2022/12/28 14:13:53;;;;;;;2.70;2.50;;;;;;;;;;4869919;29;20225;-87
2022/12/28 14:16:21;;;;;;;2.07;1.97;;;;;;;;;;4869745;29;20591;-89
2022/12/28 14:18:46;;;;;;;2.67;2.47;;;;;;;;;;4888766;29;20695;-89
2022/12/28 14:21:12;;;;;;;2.30;2.20;;;;;;;;;;4874751;29;20610;-89
2022/12/28 14:23:41;;;;;;;3.00;2.80;;;;;;;;;;4888999;29;20308;-88
2022/12/28 14:26:18;;;;;;;3.03;2.83;;;;;;;;;;4889086;29;20444;-88
2022/12/28 14:28:47;;;;;;;2.40;2.30;;;;;;;;;;4884523;29;20225;-86
2022/12/28 14:31:18;;;;;;;3.17;3.00;;;;;;;;;;4884293;29;20311;-87
2022/12/28 14:33:56;;;;;;;2.80;2.60;;;;;;;;;;4884801;29;20228;-87
2022/12/28 14:36:26;;;;;;;3.47;3.27;;;;;;;;;;4886550;29;20221;-86
2022/12/28 14:38:52;;;;;;;3.13;2.83;;;;;;;;;;4894769;29;20307;-86
2022/12/28 14:41:32;;;;;;;3.07;2.87;;;;;;;;;;4883461;29;20701;-88
2022/12/28 14:43:59;;;;;;;3.20;3.00;;;;;;;;;;4888863;29;20221;-87
2022/12/28 14:46:35;;;;;;;3.63;3.33;;;;;;;;;;4888685;29;20319;-87
2022/12/28 14:49:35;;;;;;;3.20;2.93;;;;;;;;;;4899074;29;20531;-84
2022/12/28 14:52:08;;;;;;;3.13;2.93;;;;;;;;;;4897955;29;20240;-85
2022/12/28 14:54:49;;;;;;;3.60;3.30;;;;;;;;;;4911847;29;20252;-87
2022/12/28 14:57:39;;;;;;;3.40;3.20;;;;;;;;;;4886403;29;20314;-89
2022/12/28 15:00:25;;;;;;;4.13;3.83;;;;;;;;;;4895526;29;20316;-85
2022/12/28 15:02:54;;;;;;;4.17;3.77;;;;;;;;;;4883168;29;20282;-86
2022/12/28 15:05:31;;;;;;;3.80;3.60;;;;;;;;;;4887194;29;20692;-87
2022/12/28 15:07:57;;;;;;;4.67;4.30;;;;;;;;;;4909666;29;20251;-85
2022/12/28 15:10:25;;;;;;;5.00;4.60;;;;;;;;;;4888176;29;20229;-88
2022/12/28 15:12:53;;;;;;;4.83;4.53;;;;;;;;;;4889172;29;20231;-88
2022/12/28 15:15:22;;;;;;;4.87;4.57;;;;;;;;;;4880825;29;20233;-88
2022/12/28 15:17:48;;;;;;;4.60;4.30;;;;;;;;;;4875834;29;20247;-86
2022/12/28 15:20:14;;;;;;;5.17;4.77;;;;;;;;;;4902325;29;20683;-88
2022/12/28 15:22:39;;;;;;;4.33;4.03;;;;;;;;;;4870231;29;20237;-86
2022/12/28 15:25:05;;;;;;;4.50;4.10;;;;;;;;;;4891572;29;20303;-84
2022/12/28 15:27:31;;;;;;;4.60;4.30;;;;;;;;;;4887916;29;20220;-89
2022/12/28 15:30:00;;;;;;;5.47;5.07;;;;;;;;;;4851906;29;20237;-87
2022/12/28 15:32:30;;;;;;;4.33;4.10;;;;;;;;;;4862055;29;20236;-89
2022/12/28 15:34:56;;;;;;;4.67;4.37;;;;;;;;;;4894393;29;20229;-87
2022/12/28 15:37:28;;;;;;;6.03;4.27;;;;;;;;;;4884672;29;20220;-85